Time;durP1;ratioP1;P1;durP2;ratioP2;P2;SDS_P1;SDS_P2;PMS_P1;PMS_P2;Temp;Humidity;BMP_temperature;BMP_pressure;BME280_temperature;BME280_humidity;BME280_pressure;Samples;Min_cycle;Max_cycle;Signal;HPM_P1;HPM_P2
2023/05/13 00:01:44;;;;;;;;;;;13.40;85.40;;;;;;4983277;28;19925;-67
2023/05/13 00:04:11;;;;;;;;;;;13.30;85.60;;;;;;4984069;28;19933;-67
2023/05/13 00:06:38;;;;;;;;;;;13.40;85.40;;;;;;4966733;28;19940;-67
2023/05/13 00:09:04;;;;;;;;;;;13.40;85.20;;;;;;4984164;28;19959;-68
2023/05/13 00:11:31;;;;;;;;;;;13.40;85.10;;;;;;4983716;28;21043;-68
2023/05/13 00:13:58;;;;;;;;;;;13.30;85.20;;;;;;4986690;28;19949;-68
2023/05/13 00:16:26;;;;;;;;;;;13.30;85.30;;;;;;4984067;28;19939;-68
2023/05/13 00:18:54;;;;;;;;;;;13.30;85.20;;;;;;4983049;28;19926;-69
2023/05/13 00:21:22;;;;;;;;;;;13.30;85.10;;;;;;4984355;28;20032;-69
2023/05/13 00:23:49;;;;;;;;;;;13.30;85.10;;;;;;4983050;28;19937;-68
2023/05/13 00:26:15;;;;;;;;;;;13.30;85.30;;;;;;4981564;28;20416;-68
2023/05/13 00:28:43;;;;;;;;;;;13.20;85.30;;;;;;4970226;28;19956;-67
2023/05/13 00:31:10;;;;;;;;;;;13.30;85.50;;;;;;4976208;28;19933;-69
2023/05/13 00:33:37;;;;;;;;;;;13.20;85.60;;;;;;4965836;28;20039;-70
2023/05/13 00:36:06;;;;;;;;;;;13.30;85.60;;;;;;4964794;28;19954;-68
2023/05/13 00:38:33;;;;;;;;;;;13.20;85.70;;;;;;4982711;28;19930;-68
2023/05/13 00:41:00;;;;;;;;;;;13.20;85.80;;;;;;4985051;28;20015;-65
2023/05/13 00:43:27;;;;;;;;;;;13.20;85.90;;;;;;4963522;28;19934;-65
2023/05/13 00:45:54;;;;;;;;;;;13.20;86.00;;;;;;4964850;28;19929;-66
2023/05/13 00:48:21;;;;;;;;;;;13.20;86.00;;;;;;4983428;28;19937;-65
2023/05/13 00:50:48;;;;;;;;;;;13.20;86.00;;;;;;4976112;28;19934;-66
2023/05/13 00:53:16;;;;;;;;;;;13.10;86.10;;;;;;4978247;28;19930;-67
2023/05/13 00:55:43;;;;;;;;;;;13.10;86.20;;;;;;4981030;28;19973;-69
2023/05/13 00:58:10;;;;;;;;;;;13.00;86.20;;;;;;4983379;28;19936;-68
2023/05/13 01:00:39;;;;;;;;;;;13.00;86.10;;;;;;4981595;28;19930;-66
2023/05/13 01:03:10;;;;;;;;;;;12.90;86.00;;;;;;4973496;28;19937;-66
2023/05/13 01:05:40;;;;;;;;;;;12.90;85.90;;;;;;4983673;28;19967;-66
2023/05/13 01:08:10;;;;;;;;;;;12.90;85.80;;;;;;4965196;28;20389;-66
2023/05/13 01:10:42;;;;;;;;;;;12.80;85.80;;;;;;4981059;28;19926;-67
2023/05/13 01:13:11;;;;;;;;;;;12.80;85.80;;;;;;4981499;28;20381;-68
2023/05/13 01:15:40;;;;;;;;;;;12.80;85.80;;;;;;4979542;28;19930;-65
2023/05/13 01:18:09;;;;;;;;;;;12.80;85.80;;;;;;4965981;28;19926;-64
2023/05/13 01:20:37;;;;;;;;;;;12.70;85.80;;;;;;4983327;28;19934;-64
2023/05/13 01:23:06;;;;;;;;;;;12.70;85.80;;;;;;4980568;28;19926;-67
2023/05/13 01:25:32;;;;;;;;;;;12.70;85.80;;;;;;4965968;28;20004;-66
2023/05/13 01:28:00;;;;;;;;;;;12.60;85.80;;;;;;4966147;28;20304;-65
2023/05/13 01:30:27;;;;;;;;;;;12.60;85.90;;;;;;4981923;28;19936;-65
2023/05/13 01:32:55;;;;;;;;;;;12.60;85.70;;;;;;4982583;28;19961;-66
2023/05/13 01:35:23;;;;;;;;;;;12.60;85.80;;;;;;4982548;28;19995;-66
2023/05/13 01:37:50;;;;;;;;;;;12.60;85.80;;;;;;4982538;28;19934;-65
2023/05/13 01:40:18;;;;;;;;;;;12.60;86.00;;;;;;4963313;28;20064;-66
2023/05/13 01:42:45;;;;;;;;;;;12.50;86.00;;;;;;4965596;28;19937;-64
2023/05/13 01:45:12;;;;;;;;;;;12.50;86.00;;;;;;4979670;28;20387;-65
2023/05/13 01:47:39;;;;;;;;;;;12.50;86.00;;;;;;4965290;28;20377;-66
2023/05/13 01:50:07;;;;;;;;;;;12.50;85.90;;;;;;4964750;28;19977;-64
2023/05/13 01:52:34;;;;;;;;;;;12.40;85.90;;;;;;4963471;28;19930;-66
2023/05/13 01:55:01;;;;;;;;;;;12.40;85.80;;;;;;4962175;28;20021;-66
2023/05/13 01:57:30;;;;;;;;;;;12.40;85.80;;;;;;4961600;28;19925;-64
2023/05/13 01:59:57;;;;;;;;;;;12.40;85.80;;;;;;4976600;28;20378;-65
2023/05/13 02:02:24;;;;;;;;;;;12.30;85.60;;;;;;4983373;28;20693;-65
2023/05/13 02:04:51;;;;;;;;;;;12.20;85.60;;;;;;4980053;28;19940;-67
2023/05/13 02:07:18;;;;;;;;;;;12.30;85.60;;;;;;4982694;28;19948;-65
2023/05/13 02:09:46;;;;;;;;;;;12.30;85.50;;;;;;4963867;28;19926;-65
2023/05/13 02:12:13;;;;;;;;;;;12.20;85.50;;;;;;4979684;28;19938;-66
2023/05/13 02:14:41;;;;;;;;;;;12.20;85.50;;;;;;4981307;28;19930;-65
2023/05/13 02:17:08;;;;;;;;;;;12.10;85.50;;;;;;4965077;28;19932;-65
2023/05/13 02:19:34;;;;;;;;;;;12.10;85.40;;;;;;4981030;28;20292;-65
2023/05/13 02:22:01;;;;;;;;;;;12.10;85.60;;;;;;4962790;28;20024;-66
2023/05/13 02:24:30;;;;;;;;;;;12.10;85.60;;;;;;4965263;28;19925;-66
2023/05/13 02:26:57;;;;;;;;;;;12.10;85.80;;;;;;4977990;28;19929;-64
2023/05/13 02:29:24;;;;;;;;;;;12.10;85.90;;;;;;4961282;28;19953;-63
2023/05/13 02:31:52;;;;;;;;;;;12.10;85.70;;;;;;4972863;28;19936;-64
2023/05/13 02:34:18;;;;;;;;;;;12.20;85.70;;;;;;4975471;28;19936;-64
2023/05/13 02:36:47;;;;;;;;;;;12.20;85.60;;;;;;4979111;28;19965;-65
2023/05/13 02:39:14;;;;;;;;;;;12.10;85.90;;;;;;4958935;28;19940;-65
2023/05/13 02:41:40;;;;;;;;;;;12.20;85.70;;;;;;4981274;28;19930;-64
2023/05/13 02:44:07;;;;;;;;;;;12.20;85.70;;;;;;4975250;28;20586;-64
2023/05/13 02:46:34;;;;;;;;;;;12.10;86.10;;;;;;4963381;28;20389;-64
2023/05/13 02:49:02;;;;;;;;;;;12.00;86.20;;;;;;4977262;28;19934;-63
2023/05/13 02:51:31;;;;;;;;;;;12.10;86.20;;;;;;4976725;28;20408;-64
2023/05/13 02:53:58;;;;;;;;;;;12.10;86.00;;;;;;4958497;28;20154;-65
2023/05/13 02:56:26;;;;;;;;;;;12.10;86.10;;;;;;4963468;28;20028;-63
2023/05/13 02:58:53;;;;;;;;;;;12.00;86.10;;;;;;4979644;28;19925;-64
2023/05/13 03:01:20;;;;;;;;;;;12.10;85.90;;;;;;4976579;28;19930;-60
2023/05/13 03:03:47;;;;;;;;;;;12.10;85.80;;;;;;4977244;28;19961;-62
2023/05/13 03:06:15;;;;;;;;;;;12.10;85.80;;;;;;4955496;28;20448;-62
2023/05/13 03:08:42;;;;;;;;;;;12.00;85.80;;;;;;4964168;28;19937;-63
2023/05/13 03:11:08;;;;;;;;;;;12.10;85.80;;;;;;4980458;28;19933;-66
2023/05/13 03:13:35;;;;;;;;;;;11.90;86.10;;;;;;4979389;28;20301;-66
2023/05/13 03:16:02;;;;;;;;;;;11.90;86.30;;;;;;4965382;28;19934;-78
2023/05/13 03:18:30;;;;;;;;;;;11.80;86.40;;;;;;4980461;28;19936;-79
2023/05/13 03:20:57;;;;;;;;;;;11.70;86.50;;;;;;4966780;28;19929;-64
2023/05/13 03:23:25;;;;;;;;;;;11.70;86.60;;;;;;4962712;28;19947;-63
2023/05/13 03:25:55;;;;;;;;;;;11.70;86.60;;;;;;4978589;28;19930;-63
2023/05/13 03:28:22;;;;;;;;;;;11.70;86.60;;;;;;4978340;28;19981;-63
2023/05/13 03:30:49;;;;;;;;;;;11.60;86.60;;;;;;4984680;28;20419;-64
2023/05/13 03:33:18;;;;;;;;;;;11.70;86.60;;;;;;4982101;28;19938;-64
2023/05/13 03:35:47;;;;;;;;;;;11.70;86.60;;;;;;4984882;28;19934;-65
2023/05/13 03:38:14;;;;;;;;;;;11.60;86.60;;;;;;4986207;28;19930;-65
2023/05/13 03:40:46;;;;;;;;;;;11.60;86.60;;;;;;4967456;28;20025;-66
2023/05/13 03:43:13;;;;;;;;;;;11.60;86.60;;;;;;4967570;28;19929;-65
2023/05/13 03:45:46;;;;;;;;;;;11.60;86.40;;;;;;4968372;28;19948;-64
2023/05/13 03:48:15;;;;;;;;;;;11.70;86.40;;;;;;4966873;28;19945;-64
2023/05/13 03:50:42;;;;;;;;;;;11.60;86.40;;;;;;4965763;28;19937;-64
2023/05/13 03:53:09;;;;;;;;;;;11.60;86.30;;;;;;4968976;28;20459;-65
2023/05/13 03:55:37;;;;;;;;;;;11.60;86.40;;;;;;4982204;28;19940;-65
2023/05/13 03:58:12;;;;;;;;;;;11.60;86.30;;;;;;4982584;28;19937;-64
2023/05/13 04:00:39;;;;;;;;;;;11.60;86.30;;;;;;4984092;28;20080;-63
2023/05/13 04:03:06;;;;;;;;;;;11.60;86.30;;;;;;4981233;28;19931;-66
2023/05/13 04:05:33;;;;;;;;;;;11.60;86.10;;;;;;4984094;28;20317;-63
2023/05/13 04:08:00;;;;;;;;;;;11.60;86.20;;;;;;4983728;28;19940;-63
2023/05/13 04:10:26;;;;;;;;;;;11.70;86.20;;;;;;4979943;28;20102;-65
2023/05/13 04:12:53;;;;;;;;;;;11.70;86.10;;;;;;4969108;28;19926;-64
2023/05/13 04:15:22;;;;;;;;;;;11.70;86.00;;;;;;4984377;28;19934;-63
2023/05/13 04:17:49;;;;;;;;;;;11.70;85.80;;;;;;4978431;28;19926;-65
2023/05/13 04:20:16;;;;;;;;;;;11.70;85.80;;;;;;4985728;28;19937;-65
2023/05/13 04:22:43;;;;;;;;;;;11.70;86.00;;;;;;4980902;28;21026;-63
2023/05/13 04:25:10;;;;;;;;;;;11.60;86.10;;;;;;4981195;28;20381;-65
2023/05/13 04:27:36;;;;;;;;;;;11.70;86.20;;;;;;4965108;28;19925;-65
2023/05/13 04:30:15;;;;;;;;;;;11.70;86.20;;;;;;4966709;28;19937;-64
2023/05/13 04:32:44;;;;;;;;;;;11.70;86.20;;;;;;4964030;28;19929;-64
2023/05/13 04:35:12;;;;;;;;;;;11.70;86.40;;;;;;4965519;28;19926;-66
2023/05/13 04:37:40;;;;;;;;;;;11.60;86.60;;;;;;4966715;28;19934;-63
2023/05/13 04:40:09;;;;;;;;;;;11.60;86.70;;;;;;4966476;28;19926;-63
2023/05/13 04:42:37;;;;;;;;;;;11.70;86.60;;;;;;4967355;28;19952;-64
2023/05/13 04:45:04;;;;;;;;;;;11.70;86.50;;;;;;4980312;28;20460;-65
2023/05/13 04:47:33;;;;;;;;;;;11.70;86.60;;;;;;4967089;28;19925;-66
2023/05/13 04:50:02;;;;;;;;;;;11.70;86.70;;;;;;4982962;28;19972;-65
2023/05/13 04:52:30;;;;;;;;;;;11.70;86.80;;;;;;4980619;28;20348;-65
2023/05/13 04:54:57;;;;;;;;;;;11.70;86.90;;;;;;4964079;28;20073;-65
2023/05/13 04:57:23;;;;;;;;;;;11.70;86.80;;;;;;4982713;28;20013;-64
2023/05/13 04:59:50;;;;;;;;;;;11.80;86.40;;;;;;4963496;28;20273;-64
2023/05/13 05:02:17;;;;;;;;;;;11.80;86.40;;;;;;4981894;28;19929;-65
2023/05/13 05:04:44;;;;;;;;;;;11.80;86.50;;;;;;4967522;28;19961;-65
2023/05/13 05:07:15;;;;;;;;;;;11.90;86.20;;;;;;4965796;28;19930;-63
2023/05/13 05:09:42;;;;;;;;;;;11.90;86.20;;;;;;4977450;28;19930;-64
2023/05/13 05:12:09;;;;;;;;;;;11.80;86.30;;;;;;4980067;28;19933;-64
2023/05/13 05:14:39;;;;;;;;;;;11.80;86.20;;;;;;4977956;28;19934;-64
2023/05/13 05:17:07;;;;;;;;;;;11.90;86.10;;;;;;4965573;28;20028;-64
2023/05/13 05:19:33;;;;;;;;;;;11.90;86.00;;;;;;4982989;28;19996;-64
2023/05/13 05:22:00;;;;;;;;;;;11.80;86.10;;;;;;4965703;28;19930;-64
2023/05/13 05:24:28;;;;;;;;;;;11.80;86.20;;;;;;4977435;28;19926;-64
2023/05/13 05:26:55;;;;;;;;;;;11.70;86.40;;;;;;4980595;28;19937;-65
2023/05/13 05:29:31;;;;;;;;;;;11.70;86.50;;;;;;4978396;28;20032;-65
2023/05/13 05:31:58;;;;;;;;;;;11.70;86.70;;;;;;4981028;28;19952;-65
2023/05/13 05:34:25;;;;;;;;;;;11.70;86.80;;;;;;4962332;28;19926;-64
2023/05/13 05:36:53;;;;;;;;;;;11.80;86.80;;;;;;4980351;28;20812;-63
2023/05/13 05:39:20;;;;;;;;;;;11.90;86.70;;;;;;4975953;28;19934;-63
2023/05/13 05:41:53;;;;;;;;;;;12.00;86.80;;;;;;4963569;28;19926;-65
2023/05/13 05:44:19;;;;;;;;;;;12.00;86.80;;;;;;4964737;28;19940;-65
2023/05/13 05:46:46;;;;;;;;;;;12.10;86.70;;;;;;4981193;28;19948;-65
2023/05/13 05:49:13;;;;;;;;;;;12.20;86.80;;;;;;4963759;28;19941;-63
2023/05/13 05:51:40;;;;;;;;;;;12.20;86.70;;;;;;4978957;28;19930;-64
2023/05/13 05:54:10;;;;;;;;;;;12.20;86.40;;;;;;4981399;28;19933;-64
2023/05/13 05:56:40;;;;;;;;;;;12.30;86.20;;;;;;4980060;28;20457;-64
2023/05/13 05:59:08;;;;;;;;;;;12.30;86.10;;;;;;4979083;28;19933;-67
2023/05/13 06:01:38;;;;;;;;;;;12.40;86.50;;;;;;4985932;28;19980;-65
2023/05/13 06:04:05;;;;;;;;;;;12.50;86.70;;;;;;4962178;28;19937;-65
2023/05/13 06:06:32;;;;;;;;;;;12.50;86.60;;;;;;4980646;28;19977;-65
2023/05/13 06:09:00;;;;;;;;;;;12.50;86.90;;;;;;4982907;28;19980;-65
2023/05/13 06:11:27;;;;;;;;;;;12.50;86.80;;;;;;4979997;28;19926;-65
2023/05/13 06:13:56;;;;;;;;;;;12.60;86.10;;;;;;4965761;28;19934;-66
2023/05/13 06:16:24;;;;;;;;;;;12.60;86.00;;;;;;4981126;28;19940;-65
2023/05/13 06:18:51;;;;;;;;;;;12.70;86.00;;;;;;4982940;28;19969;-65
2023/05/13 06:21:18;;;;;;;;;;;12.70;85.50;;;;;;4960934;28;19937;-66
2023/05/13 06:23:48;;;;;;;;;;;12.70;85.20;;;;;;4979023;28;19930;-66
2023/05/13 06:26:15;;;;;;;;;;;12.90;86.20;;;;;;4981166;28;19926;-64
2023/05/13 06:28:42;;;;;;;;;;;12.90;85.30;;;;;;4978098;28;19949;-66
2023/05/13 06:31:09;;;;;;;;;;;12.80;85.50;;;;;;4959768;28;20289;-65
2023/05/13 06:33:38;;;;;;;;;;;12.90;85.90;;;;;;4960939;28;20441;-66
2023/05/13 06:36:05;;;;;;;;;;;12.90;85.50;;;;;;4977192;28;19936;-65
2023/05/13 06:38:33;;;;;;;;;;;12.90;86.30;;;;;;4978148;28;19961;-65
2023/05/13 06:41:00;;;;;;;;;;;12.90;86.30;;;;;;4962864;28;19936;-65
2023/05/13 06:43:33;;;;;;;;;;;13.00;86.50;;;;;;4963081;28;19933;-65
2023/05/13 06:46:08;;;;;;;;;;;13.00;85.60;;;;;;4979111;28;19930;-65
2023/05/13 06:48:37;;;;;;;;;;;13.10;86.00;;;;;;4968626;28;19936;-65
2023/05/13 06:51:05;;;;;;;;;;;13.20;85.50;;;;;;4977370;28;19950;-65
2023/05/13 06:53:31;;;;;;;;;;;13.30;86.00;;;;;;4980455;28;19930;-66
2023/05/13 06:55:58;;;;;;;;;;;13.40;86.30;;;;;;4980611;28;19930;-65
2023/05/13 06:58:25;;;;;;;;;;;13.60;86.30;;;;;;4982807;28;19930;-65
2023/05/13 07:00:51;;;;;;;;;;;13.70;86.10;;;;;;4979189;28;19933;-65
2023/05/13 07:03:18;;;;;;;;;;;13.70;86.00;;;;;;4985071;28;19926;-65
2023/05/13 07:05:46;;;;;;;;;;;13.80;85.60;;;;;;4984244;28;19926;-65
2023/05/13 07:08:16;;;;;;;;;;;14.00;85.60;;;;;;4978939;28;19934;-66
2023/05/13 07:10:43;;;;;;;;;;;14.10;85.10;;;;;;4982662;28;19930;-64
2023/05/13 07:13:10;;;;;;;;;;;14.20;85.20;;;;;;4981016;28;19937;-66
2023/05/13 07:15:37;;;;;;;;;;;14.40;84.80;;;;;;4983642;28;19934;-65
2023/05/13 07:18:04;;;;;;;;;;;14.50;84.60;;;;;;4984629;28;19930;-65
2023/05/13 07:20:31;;;;;;;;;;;14.40;84.50;;;;;;4977754;28;19969;-64
2023/05/13 07:22:59;;;;;;;;;;;14.30;84.40;;;;;;4978642;28;19930;-65
2023/05/13 07:25:26;;;;;;;;;;;14.30;84.90;;;;;;4985418;28;19933;-65
2023/05/13 07:27:52;;;;;;;;;;;14.50;84.50;;;;;;4980779;28;19930;-64
2023/05/13 07:30:19;;;;;;;;;;;14.70;84.70;;;;;;4980690;28;19926;-66
2023/05/13 07:32:46;;;;;;;;;;;14.90;84.30;;;;;;4985335;28;19966;-65
2023/05/13 07:35:13;;;;;;;;;;;15.10;84.00;;;;;;4984911;28;20021;-65
2023/05/13 07:37:40;;;;;;;;;;;15.30;83.40;;;;;;4978047;28;20447;-65
2023/05/13 07:40:09;;;;;;;;;;;15.50;82.70;;;;;;4979270;28;20472;-65
2023/05/13 07:42:36;;;;;;;;;;;15.70;82.20;;;;;;4982929;28;19936;-65
2023/05/13 07:45:04;;;;;;;;;;;15.90;81.20;;;;;;4985386;28;19930;-64
2023/05/13 07:47:32;;;;;;;;;;;16.00;81.30;;;;;;4978184;28;19933;-66
2023/05/13 07:49:59;;;;;;;;;;;16.10;80.50;;;;;;4984527;28;19929;-65
2023/05/13 07:52:26;;;;;;;;;;;16.20;80.40;;;;;;4981589;28;19933;-67
2023/05/13 07:54:53;;;;;;;;;;;16.30;79.40;;;;;;4983769;28;19926;-67
2023/05/13 07:57:21;;;;;;;;;;;16.30;79.10;;;;;;4981558;28;19929;-67
2023/05/13 07:59:48;;;;;;;;;;;16.40;79.20;;;;;;4985170;28;19948;-66
2023/05/13 08:02:14;;;;;;;;;;;16.50;79.10;;;;;;4984044;28;19926;-73
2023/05/13 08:04:41;;;;;;;;;;;16.60;78.50;;;;;;4985341;28;20388;-72
2023/05/13 08:07:08;;;;;;;;;;;16.70;77.50;;;;;;4978531;28;19937;-76
2023/05/13 08:09:35;;;;;;;;;;;16.80;76.50;;;;;;4983841;28;19974;-74
2023/05/13 08:12:05;;;;;;;;;;;16.80;77.10;;;;;;4984133;28;19964;-74
2023/05/13 08:14:33;;;;;;;;;;;16.90;77.20;;;;;;4983600;28;19984;-73
2023/05/13 08:17:00;;;;;;;;;;;17.10;76.40;;;;;;4982347;28;19926;-72
2023/05/13 08:19:26;;;;;;;;;;;17.30;75.70;;;;;;4983764;28;19934;-73
2023/05/13 08:21:53;;;;;;;;;;;17.30;75.50;;;;;;4983930;28;19984;-66
2023/05/13 08:24:41;;;;;;;;;;;17.40;74.40;;;;;;4983539;28;19933;-68
2023/05/13 08:27:11;;;;;;;;;;;17.60;74.80;;;;;;4963042;28;19934;-66
2023/05/13 08:29:40;;;;;;;;;;;17.70;73.10;;;;;;4963882;28;19934;-63
2023/05/13 08:32:06;;;;;;;;;;;17.80;71.80;;;;;;4981436;28;19936;-62
2023/05/13 08:34:33;;;;;;;;;;;18.00;69.20;;;;;;4975593;28;19934;-62
2023/05/13 08:37:03;;;;;;;;;;;18.10;69.50;;;;;;4983265;28;19982;-72
2023/05/13 08:39:30;;;;;;;;;;;18.20;68.50;;;;;;4982866;28;19926;-75
2023/05/13 08:41:56;;;;;;;;;;;18.20;68.30;;;;;;4981325;28;19933;-74
2023/05/13 08:44:27;;;;;;;;;;;18.40;67.70;;;;;;4983337;28;19936;-75
2023/05/13 08:46:59;;;;;;;;;;;18.40;67.40;;;;;;4975121;28;19933;-63
2023/05/13 08:49:26;;;;;;;;;;;18.60;65.80;;;;;;4979641;28;20457;-60
2023/05/13 08:51:53;;;;;;;;;;;18.70;66.10;;;;;;4982604;28;20467;-67
2023/05/13 08:54:20;;;;;;;;;;;18.70;65.60;;;;;;4981996;28;19926;-66
2023/05/13 08:56:47;;;;;;;;;;;18.70;65.40;;;;;;4985043;28;20017;-76
2023/05/13 08:59:13;;;;;;;;;;;18.70;65.50;;;;;;4983630;28;19934;-75
2023/05/13 09:01:40;;;;;;;;;;;18.80;65.60;;;;;;4983592;28;19937;-77
2023/05/13 09:04:09;;;;;;;;;;;18.70;65.50;;;;;;4960962;28;20820;-75
2023/05/13 09:06:36;;;;;;;;;;;18.50;65.80;;;;;;4979205;28;19930;-68
2023/05/13 09:09:04;;;;;;;;;;;18.30;65.50;;;;;;4983144;28;19926;-67
2023/05/13 09:11:32;;;;;;;;;;;18.30;65.20;;;;;;4963735;28;20488;-74
2023/05/13 09:13:59;;;;;;;;;;;18.20;65.80;;;;;;4982334;28;19980;-73
2023/05/13 09:16:27;;;;;;;;;;;18.20;65.80;;;;;;4982094;28;19930;-65
2023/05/13 09:18:58;;;;;;;;;;;18.40;66.30;;;;;;4975303;28;19934;-65
2023/05/13 09:21:27;;;;;;;;;;;18.70;66.30;;;;;;4981130;28;19985;-64
2023/05/13 09:24:12;;;;;;;;;;;18.90;65.80;;;;;;4983012;28;20251;-65
2023/05/13 09:26:38;;;;;;;;;;;19.00;64.20;;;;;;4976467;28;20389;-67
2023/05/13 09:29:16;;;;;;;;;;;19.00;65.10;;;;;;4980374;28;19929;-67
2023/05/13 09:31:43;;;;;;;;;;;19.00;64.40;;;;;;4980466;28;19933;-72
2023/05/13 09:34:10;;;;;;;;;;;19.20;64.20;;;;;;4978025;28;19930;-74
2023/05/13 09:36:38;;;;;;;;;;;19.30;64.10;;;;;;4981844;28;19926;-66
2023/05/13 09:39:05;;;;;;;;;;;19.30;63.90;;;;;;4976457;28;19934;-65
2023/05/13 09:41:32;;;;;;;;;;;19.30;62.50;;;;;;4983652;28;19929;-65
2023/05/13 09:44:01;;;;;;;;;;;19.30;61.80;;;;;;4973676;28;20377;-64
2023/05/13 09:46:36;;;;;;;;;;;19.20;62.50;;;;;;5134234;27;19915;-67
2023/05/13 09:49:04;;;;;;;;;;;19.00;62.90;;;;;;5127365;27;19942;-66
2023/05/13 09:51:31;;;;;;;;;;;18.90;63.10;;;;;;5129439;27;19971;-67
2023/05/13 09:54:02;;;;;;;;;;;18.80;63.30;;;;;;5132196;27;19947;-68
2023/05/13 09:56:30;;;;;;;;;;;18.80;62.70;;;;;;5127751;27;19988;-73
2023/05/13 09:58:57;;;;;;;;;;;18.80;62.70;;;;;;5133070;27;19927;-74
2023/05/13 10:01:24;;;;;;;;;;;18.80;62.50;;;;;;5122470;27;19959;-66
2023/05/13 10:03:53;;;;;;;;;;;18.70;62.60;;;;;;5131322;27;19931;-65
2023/05/13 10:06:22;;;;;;;;;;;18.70;62.20;;;;;;5131115;27;20373;-61
2023/05/13 10:08:50;;;;;;;;;;;18.70;61.70;;;;;;5127050;27;20406;-63
2023/05/13 10:11:18;;;;;;;;;;;18.60;61.10;;;;;;5138276;27;19931;-63
2023/05/13 10:13:49;;;;;;;;;;;18.60;61.10;;;;;;5128764;27;19954;-63
2023/05/13 10:16:17;;;;;;;;;;;18.50;61.70;;;;;;5124929;27;19931;-77
2023/05/13 10:18:44;;;;;;;;;;;18.40;62.40;;;;;;5127324;27;19960;-75
2023/05/13 10:21:12;;;;;;;;;;;18.30;62.80;;;;;;5126752;27;19974;-63
2023/05/13 10:23:39;;;;;;;;;;;18.40;63.20;;;;;;5126743;27;19931;-63
2023/05/13 10:26:06;;;;;;;;;;;18.70;62.80;;;;;;5130781;27;19955;-73
2023/05/13 10:28:33;;;;;;;;;;;19.00;63.50;;;;;;5121124;27;19924;-74
2023/05/13 10:31:00;;;;;;;;;;;19.10;62.90;;;;;;5133492;27;19928;-63
2023/05/13 10:33:28;;;;;;;;;;;19.10;62.60;;;;;;5118735;27;19934;-62
2023/05/13 10:35:59;;;;;;;;;;;19.10;62.30;;;;;;5131062;27;19930;-68
2023/05/13 10:38:32;;;;;;;;;;;19.20;60.60;;;;;;5129562;27;20066;-67
2023/05/13 10:41:08;;;;;;;;;;;19.20;61.90;;;;;;5123167;27;19927;-63
2023/05/13 10:43:36;;;;;;;;;;;19.20;61.60;;;;;;5125796;27;19923;-64
2023/05/13 10:46:04;;;;;;;;;;;19.10;61.10;;;;;;5121702;27;19995;-64
2023/05/13 10:48:38;;;;;;;;;;;19.10;60.90;;;;;;5131057;27;19934;-64
2023/05/13 10:51:06;;;;;;;;;;;19.00;62.20;;;;;;5125239;27;20439;-64
2023/05/13 10:53:37;;;;;;;;;;;18.90;62.50;;;;;;5125514;27;19924;-64
2023/05/13 10:56:06;;;;;;;;;;;18.90;63.20;;;;;;5124167;27;19931;-72
2023/05/13 10:58:35;;;;;;;;;;;18.90;63.40;;;;;;5110308;27;19932;-72
2023/05/13 11:01:18;;;;;;;;;;;18.90;64.00;;;;;;5115640;27;20380;-76
2023/05/13 11:03:51;;;;;;;;;;;18.80;64.40;;;;;;5114321;27;19928;-73
2023/05/13 11:06:19;;;;;;;;;;;18.90;64.50;;;;;;5116028;27;19931;-76
2023/05/13 11:08:48;;;;;;;;;;;19.00;64.60;;;;;;5113284;27;19934;-75
2023/05/13 11:11:18;;;;;;;;;;;19.00;64.30;;;;;;5110405;27;19932;-63
2023/05/13 11:13:45;;;;;;;;;;;19.20;64.10;;;;;;5111100;27;19931;-65
2023/05/13 11:16:12;;;;;;;;;;;19.60;63.90;;;;;;5113326;27;19924;-73
2023/05/13 11:18:39;;;;;;;;;;;19.80;64.00;;;;;;5114378;27;19923;-74
2023/05/13 11:21:06;;;;;;;;;;;19.80;64.10;;;;;;5108417;27;19923;-69
2023/05/13 11:23:34;;;;;;;;;;;19.80;64.60;;;;;;5114612;27;20022;-68
2023/05/13 11:26:13;;;;;;;;;;;19.70;63.70;;;;;;5110579;27;19928;-63
2023/05/13 11:28:52;;;;;;;;;;;19.60;62.50;;;;;;5105833;27;19932;-62
2023/05/13 11:31:20;;;;;;;;;;;19.50;62.20;;;;;;5114464;27;19924;-68
2023/05/13 11:34:05;;;;;;;;;;;19.40;62.40;;;;;;5116664;27;20315;-70
2023/05/13 11:36:32;;;;;;;;;;;19.40;62.90;;;;;;5117485;27;19934;-68
2023/05/13 11:39:04;;;;;;;;;;;19.30;59.30;;;;;;5115309;27;20460;-69
2023/05/13 11:41:33;;;;;;;;;;;19.30;58.30;;;;;;5111810;27;20008;-67
2023/05/13 11:44:02;;;;;;;;;;;19.30;58.00;;;;;;5115862;27;19993;-71
2023/05/13 11:46:29;;;;;;;;;;;19.20;58.80;;;;;;5112153;27;19939;-74
2023/05/13 11:48:55;;;;;;;;;;;19.20;59.40;;;;;;5117208;27;19959;-74
2023/05/13 11:51:22;;;;;;;;;;;19.10;60.50;;;;;;5119305;27;19931;-73
2023/05/13 11:53:49;;;;;;;;;;;19.10;59.40;;;;;;5122414;27;20290;-73
2023/05/13 11:56:15;;;;;;;;;;;19.10;59.90;;;;;;5124145;27;19928;-67
2023/05/13 11:58:44;;;;;;;;;;;19.10;59.40;;;;;;5118000;27;19931;-67
2023/05/13 12:01:13;;;;;;;;;;;19.10;59.40;;;;;;5127782;27;19968;-67
2023/05/13 12:03:40;;;;;;;;;;;19.10;59.70;;;;;;5117913;27;19934;-67
2023/05/13 12:06:07;;;;;;;;;;;19.00;60.00;;;;;;5114573;27;19946;-67
2023/05/13 12:08:34;;;;;;;;;;;19.00;60.50;;;;;;5119266;27;19927;-68
2023/05/13 12:11:01;;;;;;;;;;;19.00;61.30;;;;;;5122283;27;19980;-67
2023/05/13 12:13:27;;;;;;;;;;;18.90;60.50;;;;;;5112265;27;19972;-67
2023/05/13 12:15:55;;;;;;;;;;;19.00;59.70;;;;;;5111727;27;19938;-75
2023/05/13 12:18:22;;;;;;;;;;;19.10;58.20;;;;;;5109170;27;19923;-76
2023/05/13 12:20:50;;;;;;;;;;;19.20;58.40;;;;;;5106705;27;19935;-73
2023/05/13 12:23:17;;;;;;;;;;;19.20;57.10;;;;;;5102595;27;19938;-74
2023/05/13 12:25:45;;;;;;;;;;;19.30;58.20;;;;;;5111340;27;19930;-63
2023/05/13 12:28:15;;;;;;;;;;;19.30;55.90;;;;;;5112728;27;20480;-63
2023/05/13 12:30:42;;;;;;;;;;;19.40;55.80;;;;;;5108582;27;19934;-68
2023/05/13 12:33:14;;;;;;;;;;;19.40;56.10;;;;;;5112974;27;20450;-68
2023/05/13 12:35:41;;;;;;;;;;;19.50;55.40;;;;;;5110303;27;19928;-76
2023/05/13 12:38:08;;;;;;;;;;;19.60;56.20;;;;;;5115435;27;20343;-78
2023/05/13 12:40:35;;;;;;;;;;;19.80;56.50;;;;;;5112710;27;19923;-73
2023/05/13 12:43:02;;;;;;;;;;;19.80;56.20;;;;;;5112508;27;20282;-75
2023/05/13 12:45:29;;;;;;;;;;;20.00;56.40;;;;;;5103993;27;19939;-65
2023/05/13 12:47:56;;;;;;;;;;;20.00;57.70;;;;;;5119189;27;19928;-66
2023/05/13 12:50:25;;;;;;;;;;;19.90;56.70;;;;;;5122363;27;19932;-65
2023/05/13 12:52:52;;;;;;;;;;;20.00;55.70;;;;;;5118399;27;19970;-64
2023/05/13 12:55:21;;;;;;;;;;;20.00;57.20;;;;;;5110954;27;20017;-64
2023/05/13 13:01:07;;;;;;;;;;;19.90;56.70;;;;;;5080309;27;19939;-64
2023/05/13 13:06:23;;;;;;;;;;;19.80;56.70;;;;;;5109257;27;19983;-63
2023/05/13 13:08:50;;;;;;;;;;;19.80;57.30;;;;;;5095829;27;19928;-64
2023/05/13 13:11:18;;;;;;;;;;;19.70;56.90;;;;;;5114853;27;19928;-67
2023/05/13 13:13:45;;;;;;;;;;;19.70;56.50;;;;;;5118790;27;19934;-68
2023/05/13 13:16:11;;;;;;;;;;;19.70;56.80;;;;;;5106853;27;20013;-68
2023/05/13 13:18:38;;;;;;;;;;;19.60;56.40;;;;;;5110459;27;19927;-67
2023/05/13 13:21:06;;;;;;;;;;;19.60;57.00;;;;;;5114158;27;19931;-65
2023/05/13 13:23:36;;;;;;;;;;;19.50;57.00;;;;;;5112691;27;20062;-67
2023/05/13 13:26:03;;;;;;;;;;;19.50;57.20;;;;;;5110833;27;19924;-67
2023/05/13 13:28:30;;;;;;;;;;;19.60;56.60;;;;;;5118918;27;19934;-68
2023/05/13 13:30:58;;;;;;;;;;;19.60;57.30;;;;;;5104619;27;19931;-63
2023/05/13 13:33:28;;;;;;;;;;;19.50;56.70;;;;;;5113460;27;19946;-64
2023/05/13 13:35:58;;;;;;;;;;;19.50;56.30;;;;;;5115636;28;19924;-69
2023/05/13 13:38:24;;;;;;;;;;;19.50;57.00;;;;;;5116084;27;20297;-69
2023/05/13 13:40:52;;;;;;;;;;;19.50;57.00;;;;;;5115108;27;20033;-73
2023/05/13 13:43:19;;;;;;;;;;;19.50;56.10;;;;;;5109553;28;19963;-74
2023/05/13 13:45:46;;;;;;;;;;;19.50;54.80;;;;;;5110982;28;19978;-67
2023/05/13 13:48:13;;;;;;;;;;;19.50;55.80;;;;;;5112434;27;19932;-68
2023/05/13 13:50:40;;;;;;;;;;;19.60;55.80;;;;;;5109939;27;19932;-67
2023/05/13 13:53:07;;;;;;;;;;;19.60;55.60;;;;;;5109049;28;20394;-67
2023/05/13 13:55:33;;;;;;;;;;;19.60;55.50;;;;;;5112019;28;19981;-67
2023/05/13 13:58:01;;;;;;;;;;;19.60;55.90;;;;;;5101177;28;19928;-67
2023/05/13 14:00:28;;;;;;;;;;;19.50;55.90;;;;;;5118020;28;19946;-73
2023/05/13 14:02:55;;;;;;;;;;;19.40;58.00;;;;;;5110723;28;20514;-73
2023/05/13 14:05:22;;;;;;;;;;;19.30;58.10;;;;;;5111090;27;19927;-73
2023/05/13 14:07:52;;;;;;;;;;;19.30;57.60;;;;;;5111796;28;19946;-73
2023/05/13 14:10:19;;;;;;;;;;;19.30;57.00;;;;;;5111440;28;20023;-73
2023/05/13 14:12:46;;;;;;;;;;;19.40;56.80;;;;;;5112994;27;19927;-73
2023/05/13 14:15:14;;;;;;;;;;;19.40;55.90;;;;;;5112528;28;20058;-68
2023/05/13 14:17:41;;;;;;;;;;;19.50;56.60;;;;;;5111083;28;19935;-68
2023/05/13 14:20:09;;;;;;;;;;;19.50;56.70;;;;;;5109213;28;20349;-68
2023/05/13 14:22:36;;;;;;;;;;;19.60;57.50;;;;;;5110944;28;19959;-68
2023/05/13 14:25:03;;;;;;;;;;;19.60;56.40;;;;;;5114565;28;19927;-68
2023/05/13 14:27:29;;;;;;;;;;;19.60;57.40;;;;;;5113013;27;19927;-68